sensor_id;sensor_type;location;lat;lon;timestamp;pressure;altitude;pressure_sealevel;temperature;humidity
58955;BME280;45815;52.334;5.024;2023-07-30T00:00:41;100847.84;;;17.22;100.00
58955;BME280;45815;52.334;5.024;2023-07-30T00:03:06;100847.88;;;17.19;100.00
58955;BME280;45815;52.334;5.024;2023-07-30T00:05:32;100832.91;;;17.10;100.00
58955;BME280;45815;52.334;5.024;2023-07-30T00:07:57;100854.97;;;17.17;100.00
58955;BME280;45815;52.334;5.024;2023-07-30T00:10:22;100854.06;;;17.18;100.00
58955;BME280;45815;52.334;5.024;2023-07-30T00:12:48;100856.69;;;17.19;100.00
58955;BME280;45815;52.334;5.024;2023-07-30T00:15:13;100860.22;;;17.20;100.00
58955;BME280;45815;52.334;5.024;2023-07-30T00:17:39;100863.75;;;17.22;100.00
58955;BME280;45815;52.334;5.024;2023-07-30T00:20:07;100863.75;;;17.22;100.00
58955;BME280;45815;52.334;5.024;2023-07-30T00:22:33;100860.19;;;17.23;100.00
58955;BME280;45815;52.334;5.024;2023-07-30T00:24:58;100861.09;;;17.20;100.00
58955;BME280;45815;52.334;5.024;2023-07-30T00:27:23;100864.66;;;17.19;100.00
58955;BME280;45815;52.334;5.024;2023-07-30T00:29:49;100865.56;;;17.17;100.00
58955;BME280;45815;52.334;5.024;2023-07-30T00:32:15;100865.56;;;17.17;100.00
58955;BME280;45815;52.334;5.024;2023-07-30T00:34:42;100868.22;;;17.14;100.00
58955;BME280;45815;52.334;5.024;2023-07-30T00:37:07;100870.00;;;17.15;100.00
58955;BME280;45815;52.334;5.024;2023-07-30T00:39:33;100869.13;;;17.13;100.00
58955;BME280;45815;52.334;5.024;2023-07-30T00:41:58;100867.34;;;17.13;100.00
58955;BME280;45815;52.334;5.024;2023-07-30T00:44:25;100848.88;;;17.02;100.00
58955;BME280;45815;52.334;5.024;2023-07-30T00:46:50;100865.59;;;17.11;100.00
58955;BME280;45815;52.334;5.024;2023-07-30T00:49:18;100867.38;;;17.12;100.00
58955;BME280;45815;52.334;5.024;2023-07-30T00:51:45;100874.44;;;17.11;100.00
58955;BME280;45815;52.334;5.024;2023-07-30T00:54:11;100869.16;;;17.09;100.00
58955;BME280;45815;52.334;5.024;2023-07-30T00:56:37;100872.69;;;17.08;100.00
58955;BME280;45815;52.334;5.024;2023-07-30T00:59:03;100874.47;;;17.09;100.00
58955;BME280;45815;52.334;5.024;2023-07-30T01:01:33;100885.06;;;17.08;100.00
58955;BME280;45815;52.334;5.024;2023-07-30T01:03:58;100876.22;;;17.11;100.00
58955;BME280;45815;52.334;5.024;2023-07-30T01:06:24;100881.47;;;17.14;100.00
58955;BME280;45815;52.334;5.024;2023-07-30T01:08:49;100883.25;;;17.16;100.00
58955;BME280;45815;52.334;5.024;2023-07-30T01:11:15;100884.13;;;17.17;100.00
58955;BME280;45815;52.334;5.024;2023-07-30T01:13:42;100882.31;;;17.22;100.00
58955;BME280;45815;52.334;5.024;2023-07-30T01:16:07;100884.94;;;17.25;100.00
58955;BME280;45815;52.334;5.024;2023-07-30T01:18:33;100877.91;;;17.19;100.00
58955;BME280;45815;52.334;5.024;2023-07-30T01:20:59;100892.03;;;17.26;100.00
58955;BME280;45815;52.334;5.024;2023-07-30T01:23:25;100890.25;;;17.25;100.00
58955;BME280;45815;52.334;5.024;2023-07-30T01:26:02;100889.38;;;17.24;100.00
58955;BME280;45815;52.334;5.024;2023-07-30T01:28:32;100885.78;;;17.30;100.00
58955;BME280;45815;52.334;5.024;2023-07-30T01:31:02;100886.66;;;17.32;100.00
58955;BME280;45815;52.334;5.024;2023-07-30T01:33:29;100890.19;;;17.34;100.00
58955;BME280;45815;52.334;5.024;2023-07-30T01:35:57;100891.09;;;17.32;100.00
58955;BME280;45815;52.334;5.024;2023-07-30T01:38:24;100895.50;;;17.31;100.00
58955;BME280;45815;52.334;5.024;2023-07-30T01:40:50;100893.78;;;17.25;100.00
58955;BME280;45815;52.334;5.024;2023-07-30T01:43:16;100894.69;;;17.24;100.00
58955;BME280;45815;52.334;5.024;2023-07-30T01:45:41;100896.44;;;17.27;100.00
58955;BME280;45815;52.334;5.024;2023-07-30T01:48:07;100892.00;;;17.29;100.00
58955;BME280;45815;52.334;5.024;2023-07-30T01:50:32;100892.00;;;17.29;100.00
58955;BME280;45815;52.334;5.024;2023-07-30T01:52:58;100892.00;;;17.29;100.00
58955;BME280;45815;52.334;5.024;2023-07-30T01:55:23;100903.47;;;17.29;100.00
58955;BME280;45815;52.334;5.024;2023-07-30T01:57:49;100899.94;;;17.29;100.00
58955;BME280;45815;52.334;5.024;2023-07-30T02:00:14;100903.50;;;17.28;100.00
58955;BME280;45815;52.334;5.024;2023-07-30T02:02:40;100904.34;;;17.30;100.00
58955;BME280;45815;52.334;5.024;2023-07-30T02:05:05;100903.47;;;17.29;100.00
58955;BME280;45815;52.334;5.024;2023-07-30T02:07:31;100905.28;;;17.26;100.00
58955;BME280;45815;52.334;5.024;2023-07-30T02:09:56;100897.28;;;17.29;100.00
58955;BME280;45815;52.334;5.024;2023-07-30T02:12:21;100901.72;;;17.27;100.00
58955;BME280;45815;52.334;5.024;2023-07-30T02:14:47;100903.53;;;17.23;100.00
58955;BME280;45815;52.334;5.024;2023-07-30T02:17:12;100905.28;;;17.23;100.00
58955;BME280;45815;52.334;5.024;2023-07-30T02:19:38;100908.81;;;17.26;100.00
58955;BME280;45815;52.334;5.024;2023-07-30T02:22:03;100907.91;;;17.29;100.00
58955;BME280;45815;52.334;5.024;2023-07-30T02:24:29;100899.94;;;17.29;100.00
58955;BME280;45815;52.334;5.024;2023-07-30T02:26:54;100904.38;;;17.27;100.00
58955;BME280;45815;52.334;5.024;2023-07-30T02:29:20;100915.00;;;17.27;100.00
58955;BME280;45815;52.334;5.024;2023-07-30T02:31:46;100899.94;;;17.27;100.00
58955;BME280;45815;52.334;5.024;2023-07-30T02:34:11;100907.94;;;17.26;100.00
58955;BME280;45815;52.334;5.024;2023-07-30T02:36:36;100909.69;;;17.27;100.00
58955;BME280;45815;52.334;5.024;2023-07-30T02:39:02;100902.59;;;17.27;100.00
58955;BME280;45815;52.334;5.024;2023-07-30T02:41:27;100902.59;;;17.29;100.00
58955;BME280;45815;52.334;5.024;2023-07-30T02:43:53;100903.50;;;17.26;100.00
58955;BME280;45815;52.334;5.024;2023-07-30T02:46:19;100903.50;;;17.28;100.00
58955;BME280;45815;52.334;5.024;2023-07-30T02:48:44;100896.44;;;17.28;100.00
58955;BME280;45815;52.334;5.024;2023-07-30T02:51:10;100890.25;;;17.28;100.00
58955;BME280;45815;52.334;5.024;2023-07-30T02:53:35;100892.88;;;17.29;100.00
58955;BME280;45815;52.334;5.024;2023-07-30T02:56:01;100892.00;;;17.29;100.00
58955;BME280;45815;52.334;5.024;2023-07-30T02:58:26;100891.97;;;17.32;100.00
58955;BME280;45815;52.334;5.024;2023-07-30T03:00:52;100884.88;;;17.34;100.00
58955;BME280;45815;52.334;5.024;2023-07-30T03:03:17;100888.44;;;17.33;100.00
58955;BME280;45815;52.334;5.024;2023-07-30T03:05:42;100891.09;;;17.32;100.00
58955;BME280;45815;52.334;5.024;2023-07-30T03:08:08;100891.13;;;17.28;100.00
58955;BME280;45815;52.334;5.024;2023-07-30T03:10:36;100898.16;;;17.29;100.00
58955;BME280;45815;52.334;5.024;2023-07-30T03:13:02;100895.56;;;17.28;100.00
58955;BME280;45815;52.334;5.024;2023-07-30T03:15:27;100891.13;;;17.25;100.00
58955;BME280;45815;52.334;5.024;2023-07-30T03:17:53;100895.56;;;17.25;100.00
58955;BME280;45815;52.334;5.024;2023-07-30T03:20:18;100895.50;;;17.29;100.00
58955;BME280;45815;52.334;5.024;2023-07-30T03:22:43;100897.28;;;17.27;100.00
58955;BME280;45815;52.334;5.024;2023-07-30T03:25:09;100902.63;;;17.26;100.00
58955;BME280;45815;52.334;5.024;2023-07-30T03:27:34;100907.91;;;17.29;100.00
58955;BME280;45815;52.334;5.024;2023-07-30T03:30:00;100900.81;;;17.31;100.00
58955;BME280;45815;52.334;5.024;2023-07-30T03:32:25;100907.00;;;17.30;100.00
58955;BME280;45815;52.334;5.024;2023-07-30T03:34:50;100901.69;;;17.32;100.00
58955;BME280;45815;52.334;5.024;2023-07-30T03:37:16;100908.78;;;17.29;100.00
58955;BME280;45815;52.334;5.024;2023-07-30T03:39:41;100915.00;;;17.27;100.00
58955;BME280;45815;52.334;5.024;2023-07-30T03:42:07;100923.81;;;17.29;100.00
58955;BME280;45815;52.334;5.024;2023-07-30T03:44:34;100912.31;;;17.33;100.00
58955;BME280;45815;52.334;5.024;2023-07-30T03:46:59;100914.97;;;17.33;100.00
58955;BME280;45815;52.334;5.024;2023-07-30T03:49:25;100920.22;;;17.38;100.00
58955;BME280;45815;52.334;5.024;2023-07-30T03:51:50;100915.81;;;17.38;100.00
58955;BME280;45815;52.334;5.024;2023-07-30T03:54:16;100918.44;;;17.38;100.00
58955;BME280;45815;52.334;5.024;2023-07-30T03:56:41;100914.91;;;17.39;100.00
58955;BME280;45815;52.334;5.024;2023-07-30T03:59:07;100914.91;;;17.41;100.00
58955;BME280;45815;52.334;5.024;2023-07-30T04:01:33;100916.72;;;17.37;100.00
58955;BME280;45815;52.334;5.024;2023-07-30T04:03:59;100921.97;;;17.40;100.00
58955;BME280;45815;52.334;5.024;2023-07-30T04:06:24;100922.88;;;17.38;100.00
58955;BME280;45815;52.334;5.024;2023-07-30T04:08:49;100915.81;;;17.38;100.00
58955;BME280;45815;52.334;5.024;2023-07-30T04:11:15;100917.53;;;17.39;100.00
58955;BME280;45815;52.334;5.024;2023-07-30T04:13:41;100909.63;;;17.38;100.00
58955;BME280;45815;52.334;5.024;2023-07-30T04:16:07;100929.91;;;17.45;100.00
58955;BME280;45815;52.334;5.024;2023-07-30T04:18:32;100913.09;;;17.44;100.00
58955;BME280;45815;52.334;5.024;2023-07-30T04:20:58;100913.06;;;17.47;100.00
58955;BME280;45815;52.334;5.024;2023-07-30T04:23:23;100904.19;;;17.51;100.00
58955;BME280;45815;52.334;5.024;2023-07-30T04:25:49;100909.50;;;17.48;100.00
58955;BME280;45815;52.334;5.024;2023-07-30T04:28:15;100899.75;;;17.52;100.00
58955;BME280;45815;52.334;5.024;2023-07-30T04:30:42;100895.34;;;17.52;100.00
58955;BME280;45815;52.334;5.024;2023-07-30T04:33:08;100887.31;;;17.57;100.00
58955;BME280;45815;52.334;5.024;2023-07-30T04:35:35;100891.72;;;17.60;100.00
58955;BME280;45815;52.334;5.024;2023-07-30T04:38:01;100887.31;;;17.59;100.00
58955;BME280;45815;52.334;5.024;2023-07-30T04:40:26;100890.84;;;17.58;100.00
58955;BME280;45815;52.334;5.024;2023-07-30T04:42:52;100887.31;;;17.59;100.00
58955;BME280;45815;52.334;5.024;2023-07-30T04:45:18;100893.50;;;17.61;100.00
58955;BME280;45815;52.334;5.024;2023-07-30T04:47:46;100886.38;;;17.63;100.00
58955;BME280;45815;52.334;5.024;2023-07-30T04:50:11;100902.31;;;17.63;100.00
58955;BME280;45815;52.334;5.024;2023-07-30T04:52:37;100886.38;;;17.63;100.00
58955;BME280;45815;52.334;5.024;2023-07-30T04:55:02;100886.47;;;17.57;100.00
58955;BME280;45815;52.334;5.024;2023-07-30T04:57:28;100890.03;;;17.52;100.00
58955;BME280;45815;52.334;5.024;2023-07-30T04:59:53;100907.69;;;17.57;100.00
58955;BME280;45815;52.334;5.024;2023-07-30T05:02:19;100893.59;;;17.51;100.00
58955;BME280;45815;52.334;5.024;2023-07-30T05:04:44;100898.84;;;17.55;100.00
58955;BME280;45815;52.334;5.024;2023-07-30T05:07:10;100898.81;;;17.61;100.00
58955;BME280;45815;52.334;5.024;2023-07-30T05:09:36;100908.47;;;17.66;100.00
58955;BME280;45815;52.334;5.024;2023-07-30T05:12:01;100906.69;;;17.70;100.00
58955;BME280;45815;52.334;5.024;2023-07-30T05:14:27;100903.09;;;17.74;100.00
58955;BME280;45815;52.334;5.024;2023-07-30T05:16:52;100906.56;;;17.79;100.00
58955;BME280;45815;52.334;5.024;2023-07-30T05:19:17;100912.78;;;17.84;100.00
58955;BME280;45815;52.334;5.024;2023-07-30T05:21:43;100899.47;;;17.87;100.00
58955;BME280;45815;52.334;5.024;2023-07-30T05:24:08;100899.41;;;17.90;100.00
58955;BME280;45815;52.334;5.024;2023-07-30T05:26:34;100902.03;;;17.95;100.00
58955;BME280;45815;52.334;5.024;2023-07-30T05:28:59;100910.03;;;17.93;100.00
58955;BME280;45815;52.334;5.024;2023-07-30T05:31:25;100905.69;;;17.86;100.00
58955;BME280;45815;52.334;5.024;2023-07-30T05:33:51;100903.00;;;17.88;100.00
58955;BME280;45815;52.334;5.024;2023-07-30T05:36:17;100909.22;;;17.85;100.00
58955;BME280;45815;52.334;5.024;2023-07-30T05:38:42;100919.88;;;17.81;100.00
58955;BME280;45815;52.334;5.024;2023-07-30T05:41:08;100913.66;;;17.83;100.00
58955;BME280;45815;52.334;5.024;2023-07-30T05:43:33;100913.66;;;17.83;100.00
58955;BME280;45815;52.334;5.024;2023-07-30T05:45:58;100905.69;;;17.86;100.00
58955;BME280;45815;52.334;5.024;2023-07-30T05:48:24;100903.03;;;17.83;100.00
58955;BME280;45815;52.334;5.024;2023-07-30T05:50:49;100900.38;;;17.86;100.00
58955;BME280;45815;52.334;5.024;2023-07-30T05:53:15;100901.22;;;17.90;100.00
58955;BME280;45815;52.334;5.024;2023-07-30T05:55:41;100906.47;;;17.96;100.00
58955;BME280;45815;52.334;5.024;2023-07-30T05:58:06;100908.25;;;17.91;100.00
58955;BME280;45815;52.334;5.024;2023-07-30T06:00:31;100907.44;;;17.87;100.00
58955;BME280;45815;52.334;5.024;2023-07-30T06:02:57;100906.50;;;17.91;100.00
58955;BME280;45815;52.334;5.024;2023-07-30T06:05:23;100901.16;;;17.96;100.00
58955;BME280;45815;52.334;5.024;2023-07-30T06:07:48;100907.38;;;17.93;100.00
58955;BME280;45815;52.334;5.024;2023-07-30T06:10:14;100913.56;;;17.92;100.00
58955;BME280;45815;52.334;5.024;2023-07-30T06:12:39;100914.47;;;17.91;100.00
58955;BME280;45815;52.334;5.024;2023-07-30T06:15:06;100907.44;;;17.87;100.00
58955;BME280;45815;52.334;5.024;2023-07-30T06:17:32;100921.63;;;17.83;100.00
58955;BME280;45815;52.334;5.024;2023-07-30T06:19:57;100925.16;;;17.85;100.00
58955;BME280;45815;52.334;5.024;2023-07-30T06:22:22;100907.53;;;17.75;100.00
58955;BME280;45815;52.334;5.024;2023-07-30T06:24:48;100931.41;;;17.75;100.00
58955;BME280;45815;52.334;5.024;2023-07-30T06:27:13;100933.22;;;17.71;100.00
58955;BME280;45815;52.334;5.024;2023-07-30T06:29:39;100938.56;;;17.67;100.00
58955;BME280;45815;52.334;5.024;2023-07-30T06:32:04;100939.38;;;17.75;100.00
58955;BME280;45815;52.334;5.024;2023-07-30T06:34:30;100941.13;;;17.78;100.00
58955;BME280;45815;52.334;5.024;2023-07-30T06:36:55;100938.44;;;17.84;100.00
58955;BME280;45815;52.334;5.024;2023-07-30T06:39:21;100937.59;;;17.77;100.00
58955;BME280;45815;52.334;5.024;2023-07-30T06:41:46;100942.00;;;17.81;100.00
58955;BME280;45815;52.334;5.024;2023-07-30T06:44:13;100935.81;;;17.82;100.00
58955;BME280;45815;52.334;5.024;2023-07-30T06:46:38;100935.81;;;17.82;100.00
58955;BME280;45815;52.334;5.024;2023-07-30T06:49:03;100942.03;;;17.75;100.00
58955;BME280;45815;52.334;5.024;2023-07-30T06:51:29;100936.69;;;17.80;100.00
58955;BME280;45815;52.334;5.024;2023-07-30T06:53:56;100934.94;;;17.82;100.00
58955;BME280;45815;52.334;5.024;2023-07-30T06:56:21;100926.94;;;17.86;100.00
58955;BME280;45815;52.334;5.024;2023-07-30T06:58:46;100929.63;;;17.82;100.00
58955;BME280;45815;52.334;5.024;2023-07-30T07:01:12;100923.31;;;17.90;100.00
58955;BME280;45815;52.334;5.024;2023-07-30T07:03:38;100925.97;;;17.93;100.00
58955;BME280;45815;52.334;5.024;2023-07-30T07:06:04;100927.72;;;17.93;100.00
58955;BME280;45815;52.334;5.024;2023-07-30T07:08:30;100923.41;;;17.84;100.00
58955;BME280;45815;52.334;5.024;2023-07-30T07:10:56;100934.03;;;17.81;100.00
58955;BME280;45815;52.334;5.024;2023-07-30T07:13:21;100939.34;;;17.81;100.00
58955;BME280;45815;52.334;5.024;2023-07-30T07:15:47;100941.03;;;17.88;100.00
58955;BME280;45815;52.334;5.024;2023-07-30T07:18:12;100950.78;;;17.89;100.00
58955;BME280;45815;52.334;5.024;2023-07-30T07:20:38;100951.63;;;17.95;100.00
58955;BME280;45815;52.334;5.024;2023-07-30T07:23:04;100946.28;;;17.98;100.00
58955;BME280;45815;52.334;5.024;2023-07-30T07:25:29;100958.66;;;17.99;100.00
58955;BME280;45815;52.334;5.024;2023-07-30T07:27:55;100941.88;;;17.98;100.00
58955;BME280;45815;52.334;5.024;2023-07-30T07:30:20;100957.81;;;17.97;100.00
58955;BME280;45815;52.334;5.024;2023-07-30T07:32:46;100963.16;;;17.92;100.00
58955;BME280;45815;52.334;5.024;2023-07-30T07:35:15;100958.72;;;17.92;100.00
58955;BME280;45815;52.334;5.024;2023-07-30T07:37:41;100973.75;;;17.95;100.00
58955;BME280;45815;52.334;5.024;2023-07-30T07:40:07;100972.81;;;18.01;100.00
58955;BME280;45815;52.334;5.024;2023-07-30T07:42:34;100965.72;;;18.03;100.00
58955;BME280;45815;52.334;5.024;2023-07-30T07:45:00;100961.28;;;18.00;100.00
58955;BME280;45815;52.334;5.024;2023-07-30T07:47:25;100958.63;;;18.02;100.00
58955;BME280;45815;52.334;5.024;2023-07-30T07:49:50;100970.16;;;18.01;100.00
58955;BME280;45815;52.334;5.024;2023-07-30T07:52:16;100974.66;;;17.92;100.00
58955;BME280;45815;52.334;5.024;2023-07-30T07:54:42;100964.94;;;17.91;100.00
58955;BME280;45815;52.334;5.024;2023-07-30T07:57:08;100965.81;;;17.93;100.00
58955;BME280;45815;52.334;5.024;2023-07-30T07:59:34;100972.88;;;17.93;100.00
58955;BME280;45815;52.334;5.024;2023-07-30T08:01:59;100966.59;;;18.03;100.00
58955;BME280;45815;52.334;5.024;2023-07-30T08:04:24;100976.28;;;18.09;100.00
58955;BME280;45815;52.334;5.024;2023-07-30T08:06:50;100976.22;;;18.15;100.00
58955;BME280;45815;52.334;5.024;2023-07-30T08:09:15;100969.94;;;18.22;100.00
58955;BME280;45815;52.334;5.024;2023-07-30T08:11:41;100970.81;;;18.24;100.00
58955;BME280;45815;52.334;5.024;2023-07-30T08:14:06;100969.81;;;18.34;100.00
58955;BME280;45815;52.334;5.024;2023-07-30T08:16:31;100967.97;;;18.40;100.00
58955;BME280;45815;52.334;5.024;2023-07-30T08:18:57;100967.00;;;18.47;100.00
58955;BME280;45815;52.334;5.024;2023-07-30T08:21:22;100966.94;;;18.54;100.00
58955;BME280;45815;52.334;5.024;2023-07-30T08:23:48;100966.72;;;18.70;100.00
58955;BME280;45815;52.334;5.024;2023-07-30T08:26:13;100964.91;;;18.76;100.00
58955;BME280;45815;52.334;5.024;2023-07-30T08:28:39;100956.94;;;18.78;100.00
58955;BME280;45815;52.334;5.024;2023-07-30T08:31:05;100970.22;;;18.76;100.00
58955;BME280;45815;52.334;5.024;2023-07-30T08:33:32;100966.78;;;18.68;100.00
58955;BME280;45815;52.334;5.024;2023-07-30T08:35:58;100961.47;;;18.65;100.00
58955;BME280;45815;52.334;5.024;2023-07-30T08:38:24;100954.53;;;18.55;100.00
58955;BME280;45815;52.334;5.024;2023-07-30T08:40:50;100943.09;;;18.47;100.00
58955;BME280;45815;52.334;5.024;2023-07-30T08:43:17;100946.66;;;18.46;100.00
58955;BME280;45815;52.334;5.024;2023-07-30T08:45:43;100952.56;;;18.69;100.00
58955;BME280;45815;52.334;5.024;2023-07-30T08:48:08;100954.03;;;18.95;100.00
58955;BME280;45815;52.334;5.024;2023-07-30T08:50:34;100955.34;;;19.27;100.00
58955;BME280;45815;52.334;5.024;2023-07-30T08:53:00;100950.72;;;19.38;100.00
58955;BME280;45815;52.334;5.024;2023-07-30T08:55:27;100965.75;;;19.42;100.00
58955;BME280;45815;52.334;5.024;2023-07-30T08:57:56;100965.69;;;19.45;100.00
58955;BME280;45815;52.334;5.024;2023-07-30T09:00:25;100962.28;;;19.37;100.00
58955;BME280;45815;52.334;5.024;2023-07-30T09:02:56;100963.38;;;19.24;100.00
58955;BME280;45815;52.334;5.024;2023-07-30T09:05:25;100963.38;;;19.22;100.00
58955;BME280;45815;52.334;5.024;2023-07-30T09:07:53;100968.81;;;19.17;100.00
58955;BME280;45815;52.334;5.024;2023-07-30T09:10:18;100971.53;;;19.11;100.00
58955;BME280;45815;52.334;5.024;2023-07-30T09:12:44;100966.16;;;19.14;100.00
58955;BME280;45815;52.334;5.024;2023-07-30T09:15:09;100971.47;;;19.17;100.00
58955;BME280;45815;52.334;5.024;2023-07-30T09:17:35;100973.75;;;19.42;100.00
58955;BME280;45815;52.334;5.024;2023-07-30T09:20:02;100969.06;;;19.58;100.00
58955;BME280;45815;52.334;5.024;2023-07-30T09:22:30;100976.94;;;19.64;100.00
58955;BME280;45815;52.334;5.024;2023-07-30T09:25:01;100965.28;;;19.73;100.00
58955;BME280;45815;52.334;5.024;2023-07-30T09:27:28;100970.53;;;19.79;100.00
58955;BME280;45815;52.334;5.024;2023-07-30T09:29:58;100965.13;;;19.84;100.00
58955;BME280;45815;52.334;5.024;2023-07-30T09:34:53;100983.00;;;19.77;100.00
58955;BME280;45815;52.334;5.024;2023-07-30T09:37:19;100992.09;;;19.62;100.00
58955;BME280;45815;52.334;5.024;2023-07-30T09:39:47;100985.72;;;19.72;100.00
58955;BME280;45815;52.334;5.024;2023-07-30T09:42:12;100993.38;;;19.92;100.00
58955;BME280;45815;52.334;5.024;2023-07-30T09:44:38;100985.34;;;19.94;100.00
58955;BME280;45815;52.334;5.024;2023-07-30T09:47:09;100994.22;;;20.44;100.00
58955;BME280;45815;52.334;5.024;2023-07-30T09:49:35;101003.75;;;20.59;100.00
58955;BME280;45815;52.334;5.024;2023-07-30T09:52:02;101007.34;;;20.56;100.00
58955;BME280;45815;52.334;5.024;2023-07-30T09:54:29;101005.31;;;20.69;100.00
58955;BME280;45815;52.334;5.024;2023-07-30T09:56:55;100992.78;;;20.73;100.00
58955;BME280;45815;52.334;5.024;2023-07-30T09:59:21;100998.31;;;20.63;100.00
58955;BME280;45815;52.334;5.024;2023-07-30T10:01:48;101007.53;;;20.91;100.00
58955;BME280;45815;52.334;5.024;2023-07-30T10:04:19;101003.41;;;20.76;100.00
58955;BME280;45815;52.334;5.024;2023-07-30T10:07:04;101011.13;;;20.90;100.00
58955;BME280;45815;52.334;5.024;2023-07-30T10:09:38;101005.78;;;20.90;100.00
58955;BME280;45815;52.334;5.024;2023-07-30T10:12:15;101013.78;;;20.90;100.00
58955;BME280;45815;52.334;5.024;2023-07-30T10:14:41;100999.94;;;21.14;100.00
58955;BME280;45815;52.334;5.024;2023-07-30T10:17:09;100998.88;;;21.21;100.00
58955;BME280;45815;52.334;5.024;2023-07-30T10:19:35;101008.56;;;21.25;100.00
58955;BME280;45815;52.334;5.024;2023-07-30T10:22:23;101005.31;;;21.11;100.00
58955;BME280;45815;52.334;5.024;2023-07-30T10:25:00;101010.91;;;20.99;100.00
58955;BME280;45815;52.334;5.024;2023-07-30T10:27:35;101012.81;;;20.94;100.00
58955;BME280;45815;52.334;5.024;2023-07-30T10:30:15;101016.34;;;20.94;100.00
58955;BME280;45815;52.334;5.024;2023-07-30T10:33:04;101019.91;;;20.95;100.00
58955;BME280;45815;52.334;5.024;2023-07-30T10:38:30;101010.31;;;21.26;100.00
58955;BME280;45815;52.334;5.024;2023-07-30T10:41:15;101015.06;;;21.54;100.00
58955;BME280;45815;52.334;5.024;2023-07-30T10:43:47;101015.97;;;21.89;100.00
58955;BME280;45815;52.334;5.024;2023-07-30T10:46:14;101013.66;;;22.11;100.00
58955;BME280;45815;52.334;5.024;2023-07-30T10:48:42;101018.47;;;22.32;100.00
58955;BME280;45815;52.334;5.024;2023-07-30T10:51:16;101027.09;;;22.08;100.00
58955;BME280;45815;52.334;5.024;2023-07-30T10:53:43;101037.44;;;21.86;100.00
58955;BME280;45815;52.334;5.024;2023-07-30T10:56:09;101025.16;;;21.79;100.00
58955;BME280;45815;52.334;5.024;2023-07-30T10:58:36;101032.53;;;21.67;100.00
58955;BME280;45815;52.334;5.024;2023-07-30T11:01:03;101029.41;;;21.50;100.00
58955;BME280;45815;52.334;5.024;2023-07-30T11:03:29;101026.06;;;21.40;100.00
58955;BME280;45815;52.334;5.024;2023-07-30T11:05:56;101040.09;;;21.50;100.00
58955;BME280;45815;52.334;5.024;2023-07-30T11:08:40;101039.25;;;21.46;100.00
58955;BME280;45815;52.334;5.024;2023-07-30T11:11:07;101035.50;;;21.55;100.00
58955;BME280;45815;52.334;5.024;2023-07-30T11:13:37;101025.88;;;21.48;100.00
58955;BME280;45815;52.334;5.024;2023-07-30T11:16:08;101037.44;;;21.86;100.00
58955;BME280;45815;52.334;5.024;2023-07-30T11:18:35;101034.44;;;22.00;100.00
58955;BME280;45815;52.334;5.024;2023-07-30T11:21:04;101041.28;;;22.10;100.00
58955;BME280;45815;52.334;5.024;2023-07-30T11:23:30;101048.38;;;22.12;100.00
58955;BME280;45815;52.334;5.024;2023-07-30T11:25:55;101046.41;;;22.21;100.00
58955;BME280;45815;52.334;5.024;2023-07-30T11:28:31;101041.06;;;22.21;100.00
58955;BME280;45815;52.334;5.024;2023-07-30T11:31:06;101041.75;;;22.29;100.00
58955;BME280;45815;52.334;5.024;2023-07-30T11:33:32;101038.03;;;22.33;100.00
58955;BME280;45815;52.334;5.024;2023-07-30T11:36:00;101039.72;;;22.37;100.00
58955;BME280;45815;52.334;5.024;2023-07-30T11:38:27;101039.81;;;22.34;100.00
58955;BME280;45815;52.334;5.024;2023-07-30T11:40:54;101040.56;;;22.39;100.00
58955;BME280;45815;52.334;5.024;2023-07-30T11:43:21;101044.94;;;22.43;100.00
58955;BME280;45815;52.334;5.024;2023-07-30T11:45:47;101044.59;;;22.55;100.00
58955;BME280;45815;52.334;5.024;2023-07-30T11:48:13;101047.75;;;23.03;100.00
58955;BME280;45815;52.334;5.024;2023-07-30T11:50:56;101058.03;;;23.16;100.00
58955;BME280;45815;52.334;5.024;2023-07-30T11:53:22;101054.97;;;23.30;100.00
58955;BME280;45815;52.334;5.024;2023-07-30T11:58:44;101061.16;;;23.60;100.00
58955;BME280;45815;52.334;5.024;2023-07-30T12:01:09;101059.94;;;23.43;100.00
58955;BME280;45815;52.334;5.024;2023-07-30T12:03:35;101063.91;;;23.87;100.00
58955;BME280;45815;52.334;5.024;2023-07-30T12:06:04;101070.47;;;24.05;100.00
58955;BME280;45815;52.334;5.024;2023-07-30T12:08:31;101065.38;;;24.24;100.00
58955;BME280;45815;52.334;5.024;2023-07-30T12:11:02;101050.41;;;24.69;100.00
58955;BME280;45815;52.334;5.024;2023-07-30T12:13:28;101064.31;;;24.55;100.00
58955;BME280;45815;52.334;5.024;2023-07-30T12:15:54;101069.75;;;24.27;100.00
58955;BME280;45815;52.334;5.024;2023-07-30T12:18:21;101061.09;;;24.43;100.00
58955;BME280;45815;52.334;5.024;2023-07-30T12:20:47;101059.91;;;24.54;100.00
58955;BME280;45815;52.334;5.024;2023-07-30T12:23:13;101068.75;;;24.81;100.00
58955;BME280;45815;52.334;5.024;2023-07-30T12:25:39;101064.75;;;24.68;100.00
58955;BME280;45815;52.334;5.024;2023-07-30T12:28:05;101068.53;;;24.62;100.00
58955;BME280;45815;52.334;5.024;2023-07-30T12:30:30;101076.75;;;24.31;100.00
58955;BME280;45815;52.334;5.024;2023-07-30T12:32:56;101074.47;;;24.18;100.00
58955;BME280;45815;52.334;5.024;2023-07-30T12:35:22;101069.84;;;24.23;100.00
58955;BME280;45815;52.334;5.024;2023-07-30T12:37:47;101068.25;;;24.70;100.00
58955;BME280;45815;52.334;5.024;2023-07-30T12:40:13;101067.34;;;24.19;100.00
58955;BME280;45815;52.334;5.024;2023-07-30T12:42:38;101079.50;;;24.02;100.00
58955;BME280;45815;52.334;5.024;2023-07-30T12:45:04;101074.03;;;23.79;100.00